Airport View

Enter AWOS ICAO identifier for current METAR.

ex. KFNL

KLKR 120530Z AUTO 00000KT 10SM CLR M02/M02 A3052 RMK AO2

12 Dec 2019 05:33

Frequency: 120.825

Phone: 803-286-6444

Other Area AWOS: KDCM - KUZA - KEQY - KFDW

TAF AMD KCLT 120158Z 1202/1306 03004KT P6SM SKC FM121400 06008KT P6SM FEW250 FM130100 06006KT P6SM SCT120 FM130300 05007KT P6SM BKN070